Time;durP1;ratioP1;P1;durP2;ratioP2;P2;SDS_P1;SDS_P2;PMS_P1;PMS_P2;Temp;Humidity;BMP_temperature;BMP_pressure;BME280_temperature;BME280_humidity;BME280_pressure;Samples;Min_cycle;Max_cycle;Signal;HPM_P1;HPM_P2
2021/08/23 00:00:25;;;;;;;;;3.75;3.00;;;;;20.97;56.43;101875.81;4999167;28;45158;-79
2021/08/23 00:02:50;;;;;;;;;4.00;4.00;;;;;21.02;56.25;101892.69;4999470;28;45328;-79
2021/08/23 00:05:16;;;;;;;;;4.00;4.00;;;;;21.01;56.89;101885.50;4998105;28;45313;-79
2021/08/23 00:07:41;;;;;;;;;5.75;4.75;;;;;20.98;56.26;101877.53;4998065;28;45261;-79
2021/08/23 00:10:08;;;;;;;;;4.50;3.50;;;;;21.02;56.80;101889.97;4999569;28;45186;-79
2021/08/23 00:12:34;;;;;;;;;5.50;4.00;;;;;20.91;56.36;101860.72;5000154;28;45175;-79
2021/08/23 00:14:59;;;;;;;;;5.25;3.00;;;;;20.96;56.85;101869.47;5002367;28;45165;-78
2021/08/23 00:17:24;;;;;;;;;4.75;3.75;;;;;21.00;56.56;101875.59;5002640;28;45391;-79
2021/08/23 00:19:50;;;;;;;;;4.25;3.25;;;;;21.00;57.00;101867.44;5001373;28;45333;-80
2021/08/23 00:22:32;;;;;;;;;5.25;5.00;;;;;20.98;56.92;101873.00;5002382;28;45410;-79
2021/08/23 00:25:00;;;;;;;;;4.00;3.00;;;;;21.02;57.10;101882.69;5002255;28;46965;-78
2021/08/23 00:27:27;;;;;;;;;4.00;4.00;;;;;20.93;56.57;101866.94;5002345;28;45463;-79
2021/08/23 00:29:52;;;;;;;;;4.50;4.00;;;;;20.97;57.17;101890.25;5002283;28;45449;-79
2021/08/23 00:32:18;;;;;;;;;4.00;4.00;;;;;20.89;57.20;101868.97;5002092;28;45351;-78
2021/08/23 00:34:43;;;;;;;;;4.75;4.75;;;;;20.89;56.93;101873.53;5002237;28;45433;-79
2021/08/23 00:37:13;;;;;;;;;3.00;3.00;;;;;20.96;57.29;101888.47;5002314;28;45375;-78
2021/08/23 00:39:38;;;;;;;;;3.50;3.00;;;;;20.86;57.12;101865.56;5002353;28;45551;-79
2021/08/23 00:42:05;;;;;;;;;5.00;4.75;;;;;20.98;57.18;101886.56;5002247;28;45239;-79
2021/08/23 00:44:32;;;;;;;;;5.00;5.00;;;;;20.90;57.52;101870.72;5001802;28;45361;-79
2021/08/23 00:46:59;;;;;;;;;4.00;4.00;;;;;20.84;57.04;101857.50;5002157;28;45471;-79
2021/08/23 00:49:24;;;;;;;;;3.75;3.75;;;;;20.94;56.93;101874.13;5002169;28;45291;-79
2021/08/23 00:51:52;;;;;;;;;2.00;2.00;;;;;20.88;57.45;101856.38;5001925;28;45423;-79
2021/08/23 00:54:19;;;;;;;;;6.50;5.00;;;;;20.95;57.05;101872.28;5002090;28;45433;-79
2021/08/23 00:56:45;;;;;;;;;5.00;4.00;;;;;20.91;57.30;101868.88;5001881;28;45541;-78
2021/08/23 00:59:11;;;;;;;;;5.25;5.25;;;;;20.90;57.14;101859.00;4987395;28;45359;-79
2021/08/23 01:02:03;;;;;;;;;5.00;4.75;;;;;20.96;57.37;101871.31;5001999;28;45439;-78
2021/08/23 01:04:50;;;;;;;;;3.00;3.00;;;;;20.97;57.46;101864.94;5000438;28;46294;-79
2021/08/23 01:07:19;;;;;;;;;4.00;3.00;;;;;20.97;57.25;101868.53;5001584;28;45412;-78
2021/08/23 01:09:51;;;;;;;;;3.00;3.00;;;;;20.88;57.10;101860.91;5002122;28;45290;-79
2021/08/23 01:12:17;;;;;;;;;4.50;4.00;;;;;20.82;57.30;101853.13;5001601;28;45449;-80
2021/08/23 01:14:42;;;;;;;;;5.00;3.25;;;;;20.88;58.02;101860.91;5001491;28;45600;-79
2021/08/23 01:17:08;;;;;;;;;3.75;3.00;;;;;20.85;57.89;101856.53;5001637;28;45467;-78
2021/08/23 01:19:38;;;;;;;;;3.75;3.75;;;;;20.85;57.73;101858.41;5001663;28;45316;-78
2021/08/23 01:22:04;;;;;;;;;3.50;3.50;;;;;20.86;58.16;101863.69;5001634;28;45228;-80
2021/08/23 01:24:33;;;;;;;;;3.00;3.00;;;;;20.90;58.20;101867.16;5000690;28;45509;-78
2021/08/23 01:27:02;;;;;;;;;4.00;4.00;;;;;20.76;57.96;101848.06;5001602;28;45465;-80
2021/08/23 01:29:46;;;;;;;;;5.25;3.50;;;;;20.90;58.14;101869.84;4999937;28;45309;-78
2021/08/23 01:32:26;;;;;;;;;3.50;3.50;;;;;20.87;58.22;101878.16;5001414;28;45775;-79
2021/08/23 01:34:53;;;;;;;;;3.00;3.00;;;;;20.84;58.10;101870.19;5001219;28;46268;-80
2021/08/23 01:37:21;;;;;;;;;4.50;4.00;;;;;20.85;57.84;101867.41;5001417;28;45446;-79
2021/08/23 01:39:47;;;;;;;;;4.00;4.00;;;;;20.87;58.07;101867.31;5000202;28;45341;-79
2021/08/23 01:42:13;;;;;;;;;3.50;3.25;;;;;20.81;58.00;101859.53;5001343;28;45506;-79
2021/08/23 01:44:40;;;;;;;;;4.50;4.00;;;;;20.84;58.17;101871.06;5000740;28;45482;-79
2021/08/23 01:47:06;;;;;;;;;2.50;2.00;;;;;20.83;57.98;101860.28;5001172;28;45477;-78
2021/08/23 01:49:31;;;;;;;;;2.75;2.75;;;;;20.89;57.89;101873.53;4996776;28;45422;-78
2021/08/23 01:51:56;;;;;;;;;3.50;3.00;;;;;20.84;58.01;101865.63;4994605;28;45467;-79
2021/08/23 01:54:22;;;;;;;;;4.00;4.00;;;;;20.90;58.08;101878.00;4999694;28;47193;-79
2021/08/23 01:56:48;;;;;;;;;4.00;4.00;;;;;20.84;58.23;101862.94;4999523;28;45454;-78
2021/08/23 01:59:14;;;;;;;;;3.25;3.25;;;;;20.84;57.92;101862.06;4999732;28;45513;-79
2021/08/23 02:01:39;;;;;;;;;5.50;4.00;;;;;20.82;57.79;101867.56;5001047;28;45449;-79
2021/08/23 02:04:05;;;;;;;;;5.00;4.00;;;;;20.77;57.99;101866.09;5000647;28;46136;-79
2021/08/23 02:06:32;;;;;;;;;3.25;3.00;;;;;20.69;58.39;101855.69;5000877;28;45271;-79
2021/08/23 02:08:58;;;;;;;;;4.00;4.00;;;;;20.67;57.97;101852.19;5000084;28;45454;-79
2021/08/23 02:11:24;;;;;;;;;2.00;2.00;;;;;20.82;57.91;101881.13;5000973;28;45280;-79
2021/08/23 02:13:51;;;;;;;;;5.75;5.00;;;;;20.80;58.15;101876.75;5000434;28;45605;-78
2021/08/23 02:16:17;;;;;;;;;6.00;4.75;;;;;20.82;58.40;101875.72;5000797;28;45438;-79
2021/08/23 02:18:42;;;;;;;;;4.75;2.00;;;;;20.71;58.29;101859.16;4996428;28;45399;-79
2021/08/23 02:21:08;;;;;;;;;3.50;3.50;;;;;20.76;58.46;101870.63;4995155;28;45337;-79
2021/08/23 02:23:33;;;;;;;;;3.00;3.00;;;;;20.80;58.22;101872.22;5000612;28;45362;-80
2021/08/23 02:25:58;;;;;;;;;3.50;3.50;;;;;20.82;58.13;101877.56;4999239;28;46093;-79
2021/08/23 02:28:24;;;;;;;;;5.25;3.75;;;;;20.79;58.43;101877.72;5000580;28;45395;-79
2021/08/23 02:30:49;;;;;;;;;6.00;4.00;;;;;20.84;58.35;101881.06;5000517;28;45425;-79
2021/08/23 02:33:15;;;;;;;;;3.25;3.25;;;;;20.70;58.51;101865.56;5000388;28;45386;-78
2021/08/23 02:35:40;;;;;;;;;3.25;3.25;;;;;20.76;58.37;101876.06;5000418;28;45292;-79
2021/08/23 02:38:07;;;;;;;;;4.75;4.75;;;;;20.77;58.63;101874.25;4999375;28;45345;-80
2021/08/23 02:40:33;;;;;;;;;3.00;3.00;;;;;20.80;58.35;101884.88;5000362;28;45416;-78
2021/08/23 02:42:59;;;;;;;;;4.00;4.00;;;;;20.78;58.46;101870.53;5000044;28;46665;-79
2021/08/23 02:45:24;;;;;;;;;3.00;3.00;;;;;20.78;58.62;101871.44;5000286;28;45207;-78
2021/08/23 02:47:49;;;;;;;;;6.25;4.25;;;;;20.77;58.45;101872.38;5000540;28;45360;-79
2021/08/23 02:50:15;;;;;;;;;3.00;3.00;;;;;20.83;58.48;101885.63;5000176;28;45538;-79
2021/08/23 02:52:40;;;;;;;;;4.00;4.00;;;;;20.53;58.51;101833.94;4998942;28;47360;-78
2021/08/23 02:55:06;;;;;;;;;4.25;4.25;;;;;20.70;58.88;101861.03;5000110;28;45445;-79
2021/08/23 02:57:32;;;;;;;;;5.75;4.25;;;;;20.75;58.71;101866.19;5000131;28;45657;-79
2021/08/23 02:59:57;;;;;;;;;5.00;4.00;;;;;20.71;58.61;101849.22;4999932;28;46132;-79
2021/08/23 03:02:22;;;;;;;;;6.50;5.75;;;;;20.75;58.48;101857.16;4999872;28;45446;-79
2021/08/23 03:04:48;;;;;;;;;6.00;4.25;;;;;20.81;58.57;101865.81;5000202;28;45245;-78
2021/08/23 03:07:13;;;;;;;;;4.00;4.00;;;;;20.70;58.83;101847.44;5000113;28;45252;-79
2021/08/23 03:09:39;;;;;;;;;4.75;4.75;;;;;20.74;58.31;101856.28;4998770;28;45457;-78
2021/08/23 03:12:04;;;;;;;;;5.00;5.00;;;;;20.73;59.07;101857.22;4999758;28;46459;-78
2021/08/23 03:14:30;;;;;;;;;4.00;4.00;;;;;20.57;58.78;101830.09;4999787;28;45263;-77
2021/08/23 03:16:55;;;;;;;;;4.50;4.50;;;;;20.71;58.76;101857.34;4999931;28;45433;-78
2021/08/23 03:19:20;;;;;;;;;4.25;3.00;;;;;20.64;58.88;101858.66;4998683;28;45464;-78
2021/08/23 03:21:46;;;;;;;;;7.00;4.50;;;;;20.66;58.64;101867.56;4998352;28;45916;-78
2021/08/23 03:24:11;;;;;;;;;3.50;3.50;;;;;20.70;59.43;101857.44;4999919;28;45260;-78
2021/08/23 03:26:41;;;;;;;;;6.25;6.00;;;;;20.70;58.91;101865.56;4999837;28;45357;-78
2021/08/23 03:29:06;;;;;;;;;6.50;6.00;;;;;20.77;59.30;101872.38;4998196;28;45428;-78
2021/08/23 03:31:31;;;;;;;;;5.50;4.00;;;;;20.66;59.30;101856.72;4999841;28;46171;-79
2021/08/23 03:33:57;;;;;;;;;7.75;4.75;;;;;20.71;59.66;101867.31;4999533;28;45419;-78
2021/08/23 03:36:23;;;;;;;;;3.75;3.75;;;;;20.76;59.48;101872.47;4999723;28;45375;-78
2021/08/23 03:38:49;;;;;;;;;6.50;5.00;;;;;20.73;59.64;101874.41;4999827;28;45640;-78
2021/08/23 03:41:16;;;;;;;;;4.50;4.50;;;;;20.71;59.41;101862.78;4999470;28;45380;-79
2021/08/23 03:43:41;;;;;;;;;6.00;5.00;;;;;20.70;59.54;101861.03;4998054;28;45769;-78
2021/08/23 03:46:06;;;;;;;;;7.25;4.25;;;;;20.80;59.28;101865.91;4999539;28;45186;-78
2021/08/23 03:48:32;;;;;;;;;4.25;4.00;;;;;20.74;59.48;101864.44;5002006;28;45183;-78
2021/08/23 03:50:57;;;;;;;;;6.25;5.00;;;;;20.71;59.77;101845.59;5001486;28;46911;-78
2021/08/23 03:53:22;;;;;;;;;6.50;5.00;;;;;20.76;59.42;101870.63;5002925;28;45285;-78
2021/08/23 03:55:48;;;;;;;;;6.25;5.75;;;;;20.67;59.51;101852.19;5002961;28;45482;-78
2021/08/23 03:58:13;;;;;;;;;6.75;4.50;;;;;20.72;59.27;101869.06;5002488;28;45395;-79
2021/08/23 04:00:39;;;;;;;;;5.25;5.25;;;;;20.69;59.49;101864.69;5002689;28;46097;-78
2021/08/23 04:03:04;;;;;;;;;5.75;3.25;;;;;20.67;59.60;101863.91;5002817;28;45245;-78
2021/08/23 04:05:29;;;;;;;;;7.25;6.25;;;;;20.68;59.45;101868.38;5002924;28;45257;-78
2021/08/23 04:07:54;;;;;;;;;3.25;3.25;;;;;20.67;60.06;101857.63;5002832;28;45162;-79
2021/08/23 04:10:20;;;;;;;;;4.25;4.25;;;;;20.67;59.72;101861.19;5002425;28;47328;-77
2021/08/23 04:12:45;;;;;;;;;2.50;2.50;;;;;20.66;59.71;101861.28;5002555;28;45304;-77
2021/08/23 04:15:11;;;;;;;;;6.00;6.00;;;;;20.62;60.03;101865.97;5002598;28;45268;-78
2021/08/23 04:17:36;;;;;;;;;4.25;4.25;;;;;20.62;60.56;101862.41;5002578;28;45336;-77
2021/08/23 04:20:03;;;;;;;;;5.25;5.25;;;;;20.65;60.56;101862.25;5002305;28;45378;-78
2021/08/23 04:22:29;;;;;;;;;4.25;4.00;;;;;20.65;60.31;101865.84;5002561;28;45296;-77
2021/08/23 04:24:54;;;;;;;;;5.00;5.00;;;;;20.66;60.82;101870.28;5002612;28;45371;-77
2021/08/23 04:27:19;;;;;;;;;5.50;4.00;;;;;20.65;60.57;101868.53;5002443;28;45236;-78
2021/08/23 04:29:45;;;;;;;;;4.00;4.00;;;;;20.63;60.74;101861.44;5001906;28;45351;-77
2021/08/23 04:32:10;;;;;;;;;8.75;5.75;;;;;20.65;60.78;101865.84;5002307;28;45372;-78
2021/08/23 04:34:36;;;;;;;;;7.00;7.00;;;;;20.66;60.59;101867.56;5002334;28;45370;-78
2021/08/23 04:37:03;;;;;;;;;4.25;4.25;;;;;20.68;60.29;101870.19;5002391;28;45388;-78
2021/08/23 04:39:31;;;;;;;;;5.50;4.50;;;;;20.68;60.52;101876.50;5002116;28;46198;-78
2021/08/23 04:41:56;;;;;;;;;5.75;3.50;;;;;20.66;60.61;101872.13;5002162;28;45477;-77
2021/08/23 04:44:21;;;;;;;;;6.75;5.25;;;;;20.65;60.34;101873.09;5001976;28;45379;-77
2021/08/23 04:46:49;;;;;;;;;7.50;5.75;;;;;20.67;60.63;101873.88;5002192;28;45307;-78
2021/08/23 04:49:14;;;;;;;;;6.25;6.00;;;;;20.65;60.55;101876.69;5001877;28;46099;-77
2021/08/23 04:51:40;;;;;;;;;6.25;5.00;;;;;20.63;60.49;101877.72;5002075;28;45308;-77
2021/08/23 04:54:05;;;;;;;;;7.75;5.50;;;;;20.63;60.96;101881.31;5002095;28;45303;-77
2021/08/23 04:56:30;;;;;;;;;8.00;6.50;;;;;20.65;60.77;101887.53;5001593;28;50647;-77
2021/08/23 04:58:56;;;;;;;;;8.00;8.00;;;;;20.65;60.71;101882.13;5000253;28;45270;-78
2021/08/23 05:01:21;;;;;;;;;10.25;9.25;;;;;20.65;60.46;101889.38;5001716;28;50183;-77
2021/08/23 05:03:46;;;;;;;;;8.00;8.00;;;;;20.67;60.48;101895.59;5001879;28;45217;-78
2021/08/23 05:06:11;;;;;;;;;6.25;6.25;;;;;20.66;60.93;101901.97;5001959;28;45446;-78
2021/08/23 05:08:37;;;;;;;;;6.50;6.50;;;;;20.63;60.63;101894.00;5001707;28;45225;-77
2021/08/23 05:11:02;;;;;;;;;8.25;7.00;;;;;20.67;60.89;101906.44;5001761;28;45196;-78
2021/08/23 05:13:27;;;;;;;;;5.75;5.75;;;;;20.60;60.57;101894.13;5001490;28;45257;-77
2021/08/23 05:15:53;;;;;;;;;8.00;5.25;;;;;20.60;61.40;101900.47;5001914;28;45218;-77
2021/08/23 05:18:18;;;;;;;;;9.00;6.50;;;;;20.63;61.10;101900.31;5001444;28;47065;-78
2021/08/23 05:20:43;;;;;;;;;9.00;8.25;;;;;20.61;60.63;101906.75;5001830;28;45267;-77
2021/08/23 05:23:09;;;;;;;;;11.25;9.25;;;;;20.63;60.62;101904.84;5001479;28;45463;-77
2021/08/23 05:25:36;;;;;;;;;8.25;8.00;;;;;20.61;60.98;101913.03;5001600;28;45307;-77
2021/08/23 05:28:02;;;;;;;;;10.25;8.75;;;;;20.57;61.10;101908.75;5000872;28;46031;-77
2021/08/23 05:30:27;;;;;;;;;5.75;4.25;;;;;20.57;61.17;101910.59;5001577;28;45381;-77
2021/08/23 05:32:53;;;;;;;;;8.75;8.75;;;;;20.56;61.14;101909.72;5001376;28;45331;-77
2021/08/23 05:35:18;;;;;;;;;13.25;11.50;;;;;20.54;60.72;101912.50;5001717;28;45289;-77
2021/08/23 05:37:44;;;;;;;;;9.50;9.00;;;;;20.53;61.18;101915.31;5001217;28;46260;-77
2021/08/23 05:40:10;;;;;;;;;8.75;7.75;;;;;20.50;61.30;101910.06;5001357;28;45253;-78
2021/08/23 05:42:35;;;;;;;;;11.75;10.00;;;;;20.53;61.12;101921.63;5001100;28;45229;-77
2021/08/23 05:45:01;;;;;;;;;13.00;12.00;;;;;20.46;60.69;101922.03;5001058;28;45558;-77
2021/08/23 05:47:26;;;;;;;;;10.00;10.00;;;;;20.45;61.35;101923.03;5000973;28;46027;-78
2021/08/23 05:49:51;;;;;;;;;9.00;8.00;;;;;20.46;61.43;101919.31;5001268;28;45394;-78
2021/08/23 05:52:17;;;;;;;;;9.50;8.50;;;;;20.44;61.35;101921.25;5000954;28;45238;-77
2021/08/23 05:54:44;;;;;;;;;12.50;12.50;;;;;20.42;61.37;101918.63;5001202;28;45249;-77
2021/08/23 05:57:09;;;;;;;;;15.25;12.75;;;;;20.44;61.22;101927.53;5000806;28;46037;-78
2021/08/23 05:59:34;;;;;;;;;14.25;12.25;;;;;20.47;61.27;101926.50;5000844;28;45340;-78
2021/08/23 06:02:00;;;;;;;;;13.75;12.25;;;;;20.49;61.10;101933.59;5001094;28;45201;-77
2021/08/23 06:04:25;;;;;;;;;11.25;11.25;;;;;20.46;60.89;101928.31;5000861;28;45340;-78
2021/08/23 06:06:51;;;;;;;;;13.50;11.75;;;;;20.44;61.13;101932.09;5000659;28;45983;-77
2021/08/23 06:09:18;;;;;;;;;10.25;10.25;;;;;20.47;61.01;101935.50;5001027;28;45424;-77
2021/08/23 06:11:44;;;;;;;;;13.00;12.50;;;;;20.46;61.38;101939.16;5000404;28;45389;-77
2021/08/23 06:14:09;;;;;;;;;9.00;9.00;;;;;20.46;61.22;101941.03;5000459;28;45344;-77
2021/08/23 06:16:35;;;;;;;;;11.25;10.25;;;;;20.43;61.35;101942.09;5000640;28;46308;-78
2021/08/23 06:19:01;;;;;;;;;12.75;12.25;;;;;20.43;61.10;101944.78;5000665;28;45225;-77
2021/08/23 06:21:26;;;;;;;;;13.50;11.50;;;;;20.31;61.10;101935.50;5000755;28;45177;-77
2021/08/23 06:23:51;;;;;;;;;10.75;10.50;;;;;20.38;61.12;101948.69;5000593;28;45207;-78
2021/08/23 06:26:17;;;;;;;;;11.50;10.25;;;;;20.38;60.74;101952.31;5000615;28;45383;-77
2021/08/23 06:28:42;;;;;;;;;11.00;9.50;;;;;20.38;60.85;101951.41;5000335;28;45458;-77
2021/08/23 06:31:07;;;;;;;;;13.00;11.50;;;;;20.40;60.86;101954.91;5000492;28;45166;-78
2021/08/23 06:33:34;;;;;;;;;14.00;13.25;;;;;20.36;60.65;101948.78;5000320;28;45445;-76
2021/08/23 06:36:00;;;;;;;;;14.00;12.75;;;;;20.38;60.79;101948.69;5000382;28;46178;-77
2021/08/23 06:38:25;;;;;;;;;12.50;12.50;;;;;20.44;60.80;101951.09;5000620;28;45424;-78
2021/08/23 06:40:50;;;;;;;;;17.00;13.75;;;;;20.47;60.69;101956.34;5000488;28;45304;-78
2021/08/23 06:43:16;;;;;;;;;15.00;13.75;;;;;20.46;60.08;101954.59;5000111;28;45309;-77
2021/08/23 06:45:41;;;;;;;;;17.50;13.75;;;;;20.43;60.18;101949.31;5000362;28;45963;-78
2021/08/23 06:48:07;;;;;;;;;14.50;11.75;;;;;20.43;60.04;101946.59;5000260;28;45292;-77
2021/08/23 06:50:32;;;;;;;;;11.50;11.50;;;;;20.34;60.11;101943.44;5000351;28;45396;-77
2021/08/23 06:52:57;;;;;;;;;12.75;12.75;;;;;20.34;60.05;101943.44;5000490;28;45431;-77
2021/08/23 06:55:23;;;;;;;;;10.00;9.75;;;;;20.39;60.67;101948.63;5000018;28;45303;-78
2021/08/23 06:57:48;;;;;;;;;11.00;11.00;;;;;20.43;60.13;101954.75;4999779;28;45368;-78
2021/08/23 07:00:14;;;;;;;;;10.00;10.00;;;;;20.42;60.12;101953.00;5000317;28;45315;-78
2021/08/23 07:02:41;;;;;;;;;9.50;9.50;;;;;20.43;60.08;101952.94;5000112;28;46535;-78
2021/08/23 07:05:07;;;;;;;;;9.00;8.50;;;;;20.47;59.87;101964.47;5000013;28;45760;-77
2021/08/23 07:07:33;;;;;;;;;7.50;6.00;;;;;20.44;59.72;101953.78;5000077;28;45303;-78
2021/08/23 07:09:58;;;;;;;;;10.25;8.75;;;;;20.48;60.17;101952.66;5000084;28;45307;-77
2021/08/23 07:12:24;;;;;;;;;10.00;8.75;;;;;20.50;60.14;101959.75;5000005;28;45386;-78
2021/08/23 07:14:49;;;;;;;;;8.75;7.50;;;;;20.47;59.83;101954.50;4999667;28;46536;-77
2021/08/23 07:17:15;;;;;;;;;9.75;8.50;;;;;20.52;60.18;101954.25;5000002;28;45363;-77
2021/08/23 07:19:40;;;;;;;;;7.00;6.00;;;;;20.51;60.13;101966.06;5000087;28;45709;-78
2021/08/23 07:22:05;;;;;;;;;6.75;6.00;;;;;20.55;60.29;101957.66;5000275;28;45356;-78
2021/08/23 07:24:30;;;;;;;;;7.75;7.75;;;;;20.57;59.86;101960.28;5003417;28;45379;-77
2021/08/23 07:26:56;;;;;;;;;7.00;7.00;;;;;20.55;59.70;101963.09;5003265;28;47201;-77
2021/08/23 07:29:22;;;;;;;;;9.75;9.75;;;;;20.60;59.47;101965.56;5003155;28;45276;-77
2021/08/23 07:31:48;;;;;;;;;8.00;5.00;;;;;20.56;59.78;101958.53;5003416;28;45439;-77
2021/08/23 07:34:13;;;;;;;;;9.25;8.50;;;;;20.58;59.84;101959.34;5002951;28;46200;-78
2021/08/23 07:36:39;;;;;;;;;11.25;10.00;;;;;20.60;59.89;101961.94;5003455;28;45269;-78
2021/08/23 07:39:04;;;;;;;;;9.00;9.00;;;;;20.57;59.75;101962.16;5003215;28;45205;-78
2021/08/23 07:41:30;;;;;;;;;7.25;7.25;;;;;20.62;59.67;101963.63;5003171;28;45425;-78
2021/08/23 07:43:55;;;;;;;;;10.75;8.75;;;;;20.62;59.85;101963.63;5002617;28;45513;-78
2021/08/23 07:46:21;;;;;;;;;8.75;7.75;;;;;20.62;60.18;101958.19;5003207;28;45241;-78
2021/08/23 07:48:47;;;;;;;;;9.75;9.25;;;;;20.64;59.48;101952.72;5002897;28;45281;-79
2021/08/23 07:51:13;;;;;;;;;9.00;8.25;;;;;20.66;59.76;101965.22;5003214;28;45240;-78
2021/08/23 07:53:39;;;;;;;;;10.75;9.50;;;;;20.67;59.58;101960.69;5002715;28;46078;-78
2021/08/23 07:56:05;;;;;;;;;8.50;7.75;;;;;20.63;59.33;101953.69;5003045;28;45288;-78
2021/08/23 07:58:30;;;;;;;;;7.00;6.75;;;;;20.75;59.71;101965.69;5002459;28;45354;-78
2021/08/23 08:00:56;;;;;;;;;10.25;8.25;;;;;20.75;59.54;101963.88;5002897;28;45351;-78
2021/08/23 08:03:21;;;;;;;;;9.25;9.25;;;;;20.74;59.46;101959.38;5002639;28;45409;-78
2021/08/23 08:05:46;;;;;;;;;9.00;9.00;;;;;20.72;59.78;101936.91;5002744;28;45387;-77
2021/08/23 08:08:12;;;;;;;;;10.50;8.75;;;;;20.83;59.09;101958.00;5004123;28;45458;-78
2021/08/23 08:10:38;;;;;;;;;10.50;9.50;;;;;20.82;58.63;101957.13;5002949;28;45439;-76
2021/08/23 08:13:05;;;;;;;;;10.25;9.50;;;;;20.82;59.18;101961.69;5002098;28;45549;-77
2021/08/23 08:15:30;;;;;;;;;10.50;8.50;;;;;20.82;59.30;101957.13;5002932;28;45446;-77
2021/08/23 08:17:56;;;;;;;;;12.00;10.50;;;;;20.83;59.25;101956.16;5002453;28;45349;-77
2021/08/23 08:20:21;;;;;;;;;10.50;9.25;;;;;20.87;59.65;101971.31;5002459;28;45391;-77
2021/08/23 08:22:47;;;;;;;;;11.75;11.50;;;;;20.92;59.04;101971.06;5002297;28;46279;-78
2021/08/23 08:25:13;;;;;;;;;13.50;12.00;;;;;20.93;59.17;101972.78;5002578;28;45220;-78
2021/08/23 08:27:38;;;;;;;;;10.00;8.75;;;;;20.94;59.37;101977.25;5002139;28;45237;-78
2021/08/23 08:30:06;;;;;;;;;10.75;10.75;;;;;20.99;58.86;101971.56;5002588;28;45248;-78
2021/08/23 08:32:32;;;;;;;;;10.00;10.00;;;;;21.00;59.03;101968.78;5001734;28;45423;-78
2021/08/23 08:34:57;;;;;;;;;8.75;8.00;;;;;20.99;58.86;101968.88;5002180;28;45343;-78
2021/08/23 08:37:23;;;;;;;;;9.50;8.25;;;;;21.02;58.91;101966.84;5002313;28;45467;-78
2021/08/23 08:39:48;;;;;;;;;11.75;10.50;;;;;21.04;58.90;101966.75;5002392;28;45229;-77
2021/08/23 08:42:17;;;;;;;;;10.00;10.00;;;;;21.05;58.89;101955.81;5002044;28;46172;-78
2021/08/23 08:44:43;;;;;;;;;10.25;9.00;;;;;21.08;58.73;101960.19;5001990;28;45456;-77
2021/08/23 08:47:14;;;;;;;;;10.00;10.00;;;;;21.10;58.84;101955.56;5002165;28;45443;-78
2021/08/23 08:49:40;;;;;;;;;9.75;9.75;;;;;21.08;59.23;101943.88;5002344;28;45369;-78
2021/08/23 08:52:08;;;;;;;;;9.25;9.25;;;;;21.07;58.82;101936.72;5000627;28;46817;-78
2021/08/23 08:54:33;;;;;;;;;10.00;7.00;;;;;21.03;59.01;101924.28;5001832;28;45237;-78
2021/08/23 08:57:03;;;;;;;;;8.00;8.00;;;;;21.20;58.46;101942.31;5001798;28;45232;-78
2021/08/23 08:59:29;;;;;;;;;9.25;8.50;;;;;21.24;59.20;101943.88;5001759;28;45313;-78
2021/08/23 09:01:54;;;;;;;;;10.00;9.50;;;;;21.17;58.35;101926.22;5001903;28;46509;-78
2021/08/23 09:04:29;;;;;;;;;9.25;7.50;;;;;21.30;58.50;101948.97;5000490;28;45391;-78
2021/08/23 09:06:57;;;;;;;;;10.25;8.25;;;;;21.35;58.37;101955.00;5000379;28;45454;-78
2021/08/23 09:09:22;;;;;;;;;10.00;8.00;;;;;21.33;57.72;101945.19;5001906;28;45232;-79
2021/08/23 09:11:58;;;;;;;;;9.00;8.00;;;;;21.36;58.12;101951.31;5001495;28;45926;-78
2021/08/23 09:14:24;;;;;;;;;7.75;7.75;;;;;21.45;57.89;101963.47;5001486;28;45364;-77
2021/08/23 09:16:50;;;;;;;;;12.00;10.00;;;;;21.45;58.33;101972.50;5000417;28;45301;-78
2021/08/23 09:19:27;;;;;;;;;9.25;8.75;;;;;21.44;58.35;101959.88;5000449;28;45484;-77
2021/08/23 09:22:01;;;;;;;;;8.25;8.25;;;;;21.44;57.30;101956.31;5001544;28;46256;-79
2021/08/23 09:24:32;;;;;;;;;7.75;6.75;;;;;21.27;57.54;101924.72;5001392;28;45374;-78
2021/08/23 09:27:09;;;;;;;;;8.00;6.50;;;;;21.46;58.49;101952.50;5000403;28;45278;-78
2021/08/23 09:30:00;;;;;;;;;6.00;6.00;;;;;21.48;57.78;101954.31;5000998;28;45249;-78
2021/08/23 09:32:29;;;;;;;;;12.75;12.00;;;;;21.49;58.22;101958.78;5001131;28;46534;-78
2021/08/23 09:34:55;;;;;;;;;10.25;8.50;;;;;21.39;58.16;101952.97;5001543;28;45154;-78
2021/08/23 09:37:24;;;;;;;;;9.00;7.50;;;;;21.41;58.19;101957.34;5000248;28;45332;-78
2021/08/23 09:39:50;;;;;;;;;9.25;8.00;;;;;21.42;58.11;101959.09;5001503;28;45454;-78
2021/08/23 09:42:20;;;;;;;;;9.75;8.75;;;;;21.46;58.13;101968.81;5001131;28;46414;-78
2021/08/23 09:44:46;;;;;;;;;8.25;6.50;;;;;21.43;58.15;101962.69;4999155;28;45292;-78
2021/08/23 09:47:11;;;;;;;;;7.00;7.00;;;;;21.52;58.46;101977.59;5001253;28;45312;-79
2021/08/23 09:49:39;;;;;;;;;6.50;6.50;;;;;21.54;58.43;101971.13;5001119;28;45505;-79
2021/08/23 09:52:06;;;;;;;;;8.00;6.25;;;;;21.55;58.15;101977.41;5001138;28;46106;-78
2021/08/23 09:54:32;;;;;;;;;6.25;6.25;;;;;21.44;57.81;101961.72;5001104;28;45391;-79
2021/08/23 09:56:58;;;;;;;;;7.50;6.50;;;;;21.52;57.85;101978.50;5000940;28;45162;-79
2021/08/23 09:59:29;;;;;;;;;7.25;7.00;;;;;21.51;58.11;101979.44;4999522;28;45460;-79
2021/08/23 10:01:57;;;;;;;;;9.00;7.50;;;;;21.53;58.29;101982.94;5000759;28;46581;-79
2021/08/23 10:04:24;;;;;;;;;7.25;7.25;;;;;21.27;57.93;101936.44;5000939;28;45411;-79
2021/08/23 10:06:51;;;;;;;;;9.00;9.00;;;;;21.46;58.07;101970.66;5000874;28;45259;-79
2021/08/23 10:09:19;;;;;;;;;6.25;5.25;;;;;21.52;57.59;101973.06;4999660;28;45285;-79
2021/08/23 10:11:45;;;;;;;;;7.00;7.00;;;;;21.53;58.16;101980.22;5000580;28;45434;-78
2021/08/23 10:14:11;;;;;;;;;8.75;7.50;;;;;21.52;58.36;101978.50;5000573;28;45344;-78
2021/08/23 10:16:36;;;;;;;;;9.25;7.25;;;;;21.47;57.70;101972.44;5000686;28;45241;-78
2021/08/23 10:19:04;;;;;;;;;7.50;7.25;;;;;21.51;58.09;101973.16;4999396;28;45214;-79
2021/08/23 10:21:30;;;;;;;;;8.75;7.75;;;;;21.54;57.91;101978.41;5000610;28;46737;-78
2021/08/23 10:23:57;;;;;;;;;6.00;6.00;;;;;21.51;58.51;101965.00;5000591;28;45277;-79
2021/08/23 10:26:23;;;;;;;;;7.00;7.00;;;;;21.50;58.41;101960.50;5000571;28;45332;-78
2021/08/23 10:28:49;;;;;;;;;8.50;5.00;;;;;21.45;58.31;101953.50;4998982;28;45934;-78
2021/08/23 10:31:18;;;;;;;;;6.00;5.25;;;;;21.55;58.10;101966.53;5000442;28;45847;-78
2021/08/23 10:33:44;;;;;;;;;7.50;7.50;;;;;21.46;58.23;101957.94;5000299;28;45177;-78
2021/08/23 10:36:16;;;;;;;;;8.50;8.50;;;;;21.42;58.36;101952.81;5000606;28;45475;-79
2021/08/23 10:38:43;;;;;;;;;7.00;6.75;;;;;21.55;58.26;101963.84;5000588;28;45513;-79
2021/08/23 10:41:16;;;;;;;;;6.25;6.25;;;;;21.55;58.55;101969.25;5000160;28;45611;-79
2021/08/23 10:43:50;;;;;;;;;4.25;4.25;;;;;21.52;58.13;101966.72;4998861;28;45392;-79
2021/08/23 10:46:42;;;;;;;;;7.50;6.00;;;;;21.54;59.02;101976.56;5000567;28;45242;-79
2021/08/23 10:49:10;;;;;;;;;5.75;5.75;;;;;21.55;58.27;101975.59;4997773;28;45277;-80
2021/08/23 10:51:38;;;;;;;;;7.75;7.75;;;;;21.53;58.74;101973.91;5000453;28;45351;-79
2021/08/23 10:54:25;;;;;;;;;5.75;5.75;;;;;21.48;58.77;101962.44;5000113;28;45305;-79
2021/08/23 10:56:59;;;;;;;;;5.75;5.75;;;;;21.50;58.83;101975.00;4999845;28;45331;-79
2021/08/23 10:59:36;;;;;;;;;7.25;6.25;;;;;21.43;59.19;101955.44;5000031;28;45407;-79
2021/08/23 11:02:01;;;;;;;;;6.00;6.00;;;;;21.42;58.68;101961.81;4999774;28;45454;-77
2021/08/23 11:04:37;;;;;;;;;5.50;4.75;;;;;21.38;58.71;101953.94;4998774;28;45368;-78
2021/08/23 11:07:04;;;;;;;;;5.25;5.25;;;;;21.46;59.24;101966.09;5000068;28;45348;-78
2021/08/23 11:09:43;;;;;;;;;7.50;5.50;;;;;21.48;59.33;101966.03;5000199;28;45454;-79
2021/08/23 11:12:18;;;;;;;;;7.25;6.50;;;;;21.43;59.20;101959.97;4999581;28;46109;-79
2021/08/23 11:14:52;;;;;;;;;7.00;6.50;;;;;21.44;58.71;101959.88;4998368;28;45266;-79
2021/08/23 11:17:30;;;;;;;;;6.75;6.75;;;;;21.49;59.03;101956.06;4998783;28;45246;-79
2021/08/23 11:19:56;;;;;;;;;8.00;6.00;;;;;21.49;58.77;101958.78;4999923;28;46235;-79